Wetterdaten: Woche 22.01.07 - 28.01.07 (KW4)
Datum Zeit Temperatur Luftfeuchte Luftdruck Niederschlag Wind Richtung Sonnenschein UV-Strahlung Solar Taupunkt Windchill Windben
22.01.2007 00:00 3.8 C 79 % 1020.8 hPa 0.0 l/m 2.3 km/h (1 Bft) S-SO 0.00 h 0.0 UV-I 0 W/m 0.6 C 3.7 C 4.2 km/h (1 Bft)
22.01.2007 01:00 4.0 C 80 % 1020.3 hPa 0.0 l/m 1.2 km/h (1 Bft) SO 0.00 h 0.0 UV-I 0 W/m 0.8 C 4.0 C 2.8 km/h (1 Bft)
22.01.2007 02:00 3.3 C 82 % 1019.8 hPa 0.0 l/m 0.7 km/h (0 Bft) SO 0.00 h 0.0 UV-I 0 W/m 0.5 C 3.3 C 1.3 km/h (1 Bft)
22.01.2007 03:00 2.6 C 87 % 1019.6 hPa 0.0 l/m 1.0 km/h (0 Bft) SO 0.00 h 0.0 UV-I 0 W/m 0.6 C 2.6 C 1.8 km/h (1 Bft)
22.01.2007 04:00 2.1 C 89 % 1018.8 hPa 0.0 l/m 0.3 km/h (0 Bft) SO 0.00 h 0.0 UV-I 0 W/m 0.5 C 2.1 C 0.6 km/h (0 Bft)
22.01.2007 05:00 1.8 C 93 % 1018.2 hPa 0.0 l/m 0.0 km/h (0 Bft) N 0.00 h 0.0 UV-I 0 W/m 0.7 C 1.8 C 0.0 km/h (0 Bft)
22.01.2007 06:00 1.4 C 94 % 1017.8 hPa 0.0 l/m 0.2 km/h (0 Bft) S-SO 0.00 h 0.0 UV-I 0 W/m 0.5 C 1.4 C 0.6 km/h (0 Bft)
22.01.2007 07:00 1.3 C 94 % 1017.6 hPa 0.0 l/m 0.0 km/h (0 Bft) S-SO 0.00 h 0.0 UV-I 0 W/m 0.5 C 1.3 C 0.3 km/h (0 Bft)
22.01.2007 08:00 1.3 C 94 % 1017.4 hPa 0.0 l/m 0.1 km/h (0 Bft) S-SO 0.00 h 0.0 UV-I 21 W/m 0.5 C 1.3 C 0.3 km/h (0 Bft)
22.01.2007 09:00 1.9 C 92 % 1017.1 hPa 0.0 l/m 0.1 km/h (0 Bft) S-SO 0.00 h 0.0 UV-I 48 W/m 0.8 C 1.9 C 1.0 km/h (0 Bft)
22.01.2007 10:00 2.5 C 90 % 1016.6 hPa 0.0 l/m 0.3 km/h (0 Bft) W-SW 0.00 h 0.6 UV-I 84 W/m 1.0 C 2.5 C 1.5 km/h (1 Bft)
22.01.2007 11:00 4.0 C 82 % 1015.5 hPa 0.0 l/m 1.7 km/h (1 Bft) O-SO 0.10 h 0.8 UV-I 162 W/m 1.2 C 3.9 C 4.5 km/h (1 Bft)
22.01.2007 12:00 5.2 C 76 % 1014.9 hPa 0.0 l/m 2.2 km/h (1 Bft) N 0.10 h 0.9 UV-I 172 W/m 1.3 C 5.0 C 4.8 km/h (1 Bft)
22.01.2007 13:00 5.9 C 72 % 1014.1 hPa 0.0 l/m 1.8 km/h (1 Bft) O-NO 0.33 h 0.9 UV-I 174 W/m 1.2 C 5.9 C 4.6 km/h (1 Bft)
22.01.2007 14:00 6.2 C 68 % 1013.5 hPa 0.0 l/m 2.3 km/h (1 Bft) NO 0.00 h 0.7 UV-I 113 W/m 0.8 C 6.1 C 5.7 km/h (1 Bft)
22.01.2007 15:00 6.3 C 67 % 1013.5 hPa 0.0 l/m 1.9 km/h (1 Bft) N-NO 0.00 h 0.5 UV-I 71 W/m 0.7 C 6.2 C 4.1 km/h (1 Bft)
22.01.2007 16:00 5.9 C 67 % 1013.3 hPa 0.0 l/m 1.6 km/h (1 Bft) NO 0.00 h 0.0 UV-I 20 W/m 0.3 C 5.8 C 4.0 km/h (1 Bft)
22.01.2007 17:00 5.6 C 66 % 1013.1 hPa 0.0 l/m 1.2 km/h (1 Bft) N-NO 0.00 h 0.0 UV-I 0 W/m -0.3 C 5.6 C 3.5 km/h (1 Bft)
22.01.2007 18:00 5.4 C 64 % 1013.0 hPa 0.0 l/m 4.9 km/h (1 Bft) N-NO 0.00 h 0.0 UV-I 0 W/m -0.9 C 4.6 C 9.7 km/h (2 Bft)
22.01.2007 19:00 5.3 C 64 % 1013.0 hPa 0.0 l/m 2.4 km/h (1 Bft) NO 0.00 h 0.0 UV-I 0 W/m -1.0 C 5.2 C 5.7 km/h (1 Bft)
22.01.2007 20:00 5.0 C 69 % 1013.1 hPa 0.2 l/m 4.3 km/h (1 Bft) N-NO 0.00 h 0.0 UV-I 0 W/m -0.2 C 4.2 C 9.4 km/h (2 Bft)
22.01.2007 21:00 3.6 C 84 % 1013.3 hPa 1.4 l/m 5.2 km/h (1 Bft) N-NO 0.00 h 0.0 UV-I 0 W/m 1.1 C 2.6 C 11.3 km/h (2 Bft)
22.01.2007 22:00 2.5 C 90 % 1013.2 hPa 1.0 l/m 3.6 km/h (1 Bft) N-NO 0.00 h 0.0 UV-I 0 W/m 1.0 C 2.0 C 7.6 km/h (2 Bft)
22.01.2007 23:00 1.9 C 92 % 1012.8 hPa 1.2 l/m 2.6 km/h (1 Bft) N-NO 0.00 h 0.0 UV-I 0 W/m 0.7 C 1.6 C 6.2 km/h (2 Bft)
23.01.2007 00:00 1.9 C 93 % 1012.4 hPa 0.6 l/m 2.5 km/h (1 Bft) N-NO 0.00 h 0.0 UV-I 0 W/m 0.9 C 1.7 C 6.1 km/h (2 Bft)
23.01.2007 01:00 2.0 C 92 % 1011.5 hPa 0.6 l/m 3.9 km/h (1 Bft) N-NO 0.00 h 0.0 UV-I 0 W/m 1.0 C 1.4 C 8.4 km/h (2 Bft)
23.01.2007 02:00 2.1 C 91 % 1010.9 hPa 0.2 l/m 5.2 km/h (1 Bft) NO 0.00 h 0.0 UV-I 0 W/m 0.8 C 1.0 C 12.0 km/h (2 Bft)
23.01.2007 03:00 2.2 C 90 % 1009.8 hPa 0.2 l/m 6.1 km/h (2 Bft) O 0.00 h 0.0 UV-I 0 W/m 0.6 C 0.6 C 13.3 km/h (3 Bft)
23.01.2007 04:00 2.4 C 86 % 1008.3 hPa 0.0 l/m 5.2 km/h (1 Bft) O 0.00 h 0.0 UV-I 0 W/m 0.3 C 1.2 C 11.9 km/h (2 Bft)
23.01.2007 05:00 2.7 C 83 % 1007.3 hPa 0.0 l/m 6.3 km/h (2 Bft) O 0.00 h 0.0 UV-I 0 W/m 0.1 C 1.2 C 14.2 km/h (3 Bft)
23.01.2007 06:00 2.8 C 81 % 1006.6 hPa 0.0 l/m 5.6 km/h (1 Bft) N-NO 0.00 h 0.0 UV-I 0 W/m -0.1 C 1.6 C 11.8 km/h (2 Bft)
23.01.2007 07:00 2.9 C 80 % 1005.8 hPa 0.0 l/m 6.3 km/h (2 Bft) N-NO 0.00 h 0.0 UV-I 0 W/m -0.2 C 1.5 C 13.4 km/h (3 Bft)
23.01.2007 08:00 2.9 C 79 % 1004.8 hPa 0.0 l/m 6.4 km/h (2 Bft) NO 0.00 h 0.0 UV-I 8 W/m -0.3 C 1.3 C 13.9 km/h (3 Bft)
23.01.2007 09:00 2.9 C 79 % 1004.5 hPa 0.0 l/m 7.1 km/h (2 Bft) N 0.00 h 0.0 UV-I 14 W/m -0.4 C 1.2 C 15.8 km/h (3 Bft)
23.01.2007 10:00 2.8 C 80 % 1004.0 hPa 0.0 l/m 4.9 km/h (1 Bft) NO 0.00 h 0.0 UV-I 12 W/m -0.3 C 1.9 C 10.7 km/h (2 Bft)
23.01.2007 11:00 2.6 C 81 % 1003.2 hPa 0.0 l/m 5.5 km/h (1 Bft) N-NO 0.00 h 0.0 UV-I 26 W/m -0.4 C 1.3 C 11.6 km/h (2 Bft)
23.01.2007 12:00 2.1 C 81 % 1002.3 hPa 0.0 l/m 6.0 km/h (2 Bft) NO 0.00 h 0.0 UV-I 27 W/m -0.9 C 0.6 C 12.5 km/h (3 Bft)
23.01.2007 13:00 1.7 C 81 % 1001.0 hPa 0.0 l/m 5.5 km/h (1 Bft) O-SO 0.00 h 0.0 UV-I 24 W/m -1.2 C 0.4 C 11.9 km/h (2 Bft)
23.01.2007 14:00 1.4 C 81 % 1000.6 hPa 0.0 l/m 5.2 km/h (1 Bft) NO 0.00 h 0.0 UV-I 16 W/m -1.5 C 0.2 C 10.5 km/h (2 Bft)
23.01.2007 15:00 1.0 C 80 % 999.9 hPa 0.0 l/m 6.2 km/h (2 Bft) O-SO 0.00 h 0.0 UV-I 13 W/m -2.0 C -0.7 C 14.0 km/h (3 Bft)
23.01.2007 16:00 0.7 C 81 % 999.1 hPa 0.0 l/m 6.6 km/h (2 Bft) O 0.00 h 0.0 UV-I 7 W/m -2.2 C -1.2 C 13.5 km/h (3 Bft)
23.01.2007 17:00 0.4 C 82 % 998.6 hPa 0.0 l/m 6.7 km/h (2 Bft) O-SO 0.00 h 0.0 UV-I 0 W/m -2.3 C -1.5 C 14.2 km/h (3 Bft)
23.01.2007 18:00 0.2 C 83 % 998.9 hPa 0.0 l/m 5.1 km/h (1 Bft) NO 0.00 h 0.0 UV-I 0 W/m -2.4 C -1.1 C 10.9 km/h (2 Bft)
23.01.2007 19:00 -0.9 C 86 % 999.0 hPa 0.2 l/m 8.5 km/h (2 Bft) N 0.00 h 0.0 UV-I 0 W/m -3.0 C -3.8 C 16.0 km/h (3 Bft)
23.01.2007 20:00 -1.7 C 89 % 999.2 hPa 0.2 l/m 5.8 km/h (2 Bft) N-NO 0.00 h 0.0 UV-I 0 W/m -3.3 C -3.6 C 11.0 km/h (2 Bft)
23.01.2007 21:00 -1.8 C 84 % 999.2 hPa 0.0 l/m 2.3 km/h (1 Bft) N-NO 0.00 h 0.0 UV-I 0 W/m -4.2 C -2.2 C 5.3 km/h (1 Bft)
23.01.2007 22:00 -1.8 C 77 % 998.9 hPa 0.2 l/m 5.0 km/h (1 Bft) N 0.00 h 0.0 UV-I 0 W/m -5.2 C -3.3 C 9.9 km/h (2 Bft)
23.01.2007 23:00 -1.7 C 74 % 999.3 hPa 0.2 l/m 4.0 km/h (1 Bft) N-NO 0.00 h 0.0 UV-I 0 W/m -5.7 C -2.8 C 8.3 km/h (2 Bft)
24.01.2007 00:00 -1.8 C 74 % 999.3 hPa 0.0 l/m 6.2 km/h (2 Bft) N-NO 0.00 h 0.0 UV-I 0 W/m -5.8 C -3.9 C 12.1 km/h (2 Bft)
24.01.2007 01:00 -2.1 C 77 % 999.7 hPa 0.0 l/m 2.2 km/h (1 Bft) N 0.00 h 0.0 UV-I 0 W/m -5.5 C -2.4 C 5.6 km/h (1 Bft)
24.01.2007 02:00 -2.4 C 83 % 1000.1 hPa 0.0 l/m 2.3 km/h (1 Bft) N-NO 0.00 h 0.0 UV-I 0 W/m -4.9 C -2.7 C 5.4 km/h (1 Bft)
24.01.2007 03:00 -2.8 C 86 % 1000.3 hPa 0.0 l/m 1.5 km/h (1 Bft) N-NO 0.00 h 0.0 UV-I 0 W/m -4.9 C -2.8 C 3.9 km/h (1 Bft)
24.01.2007 04:00 -3.0 C 87 % 1000.4 hPa 0.0 l/m 0.4 km/h (0 Bft) O-NO 0.00 h 0.0 UV-I 0 W/m -4.9 C -3.0 C 1.4 km/h (1 Bft)
24.01.2007 05:00 -3.3 C 90 % 1001.2 hPa 0.4 l/m 0.6 km/h (0 Bft) W 0.00 h 0.0 UV-I 0 W/m -4.8 C -3.3 C 1.6 km/h (1 Bft)
24.01.2007 06:00 -3.6 C 91 % 1001.8 hPa 0.8 l/m 0.4 km/h (0 Bft) NW 0.00 h 0.0 UV-I 0 W/m -4.9 C -3.6 C 1.4 km/h (1 Bft)
24.01.2007 07:00 -3.8 C 91 % 1002.8 hPa 0.6 l/m 1.8 km/h (1 Bft) W-SW 0.00 h 0.0 UV-I 0 W/m -5.1 C -4.0 C 3.7 km/h (1 Bft)
24.01.2007 08:00 -4.2 C 90 % 1003.6 hPa 0.2 l/m 3.9 km/h (1 Bft) W 0.00 h 0.0 UV-I 5 W/m -5.6 C -5.2 C 7.0 km/h (2 Bft)
24.01.2007 09:00 -4.2 C 88 % 1004.4 hPa 0.4 l/m 5.1 km/h (1 Bft) W 0.00 h 0.0 UV-I 13 W/m -5.8 C -5.9 C 8.7 km/h (2 Bft)
24.01.2007 10:00 -3.7 C 85 % 1004.8 hPa 0.0 l/m 6.5 km/h (2 Bft) W 0.00 h 0.0 UV-I 32 W/m -5.8 C -6.2 C 10.6 km/h (2 Bft)
24.01.2007 11:00 -3.3 C 84 % 1005.5 hPa 0.2 l/m 8.0 km/h (2 Bft) W-SW 0.00 h 0.0 UV-I 38 W/m -5.6 C -6.6 C 13.2 km/h (3 Bft)
24.01.2007 12:00 -2.9 C 82 % 1005.6 hPa 0.2 l/m 7.9 km/h (2 Bft) W-SW 0.00 h 0.0 UV-I 47 W/m -5.5 C -6.0 C 12.5 km/h (3 Bft)
24.01.2007 13:00 -2.8 C 82 % 1005.8 hPa 0.2 l/m 6.7 km/h (2 Bft) W-SW 0.00 h 0.0 UV-I 40 W/m -5.4 C -5.3 C 10.7 km/h (2 Bft)
24.01.2007 14:00 -3.0 C 83 % 1006.4 hPa 0.0 l/m 7.1 km/h (2 Bft) W 0.00 h 0.0 UV-I 34 W/m -5.5 C -5.6 C 11.2 km/h (2 Bft)
24.01.2007 15:00 -3.4 C 84 % 1007.3 hPa 0.2 l/m 5.7 km/h (1 Bft) W 0.00 h 0.0 UV-I 23 W/m -5.8 C -5.4 C 8.7 km/h (2 Bft)
24.01.2007 16:00 -3.6 C 83 % 1008.0 hPa 0.0 l/m 4.9 km/h (1 Bft) W-NW 0.00 h 0.0 UV-I 14 W/m -6.0 C -5.2 C 7.8 km/h (2 Bft)
24.01.2007 17:00 -3.8 C 83 % 1008.7 hPa 0.0 l/m 1.1 km/h (1 Bft) W-NW 0.00 h 0.0 UV-I 0 W/m -6.2 C -3.8 C 2.9 km/h (1 Bft)
24.01.2007 18:00 -4.0 C 83 % 1009.5 hPa 0.0 l/m 2.1 km/h (1 Bft) W-SW 0.00 h 0.0 UV-I 0 W/m -6.5 C -4.1 C 4.3 km/h (1 Bft)
24.01.2007 19:00 -4.3 C 86 % 1010.5 hPa 0.0 l/m 0.3 km/h (0 Bft) W-SW 0.00 h 0.0 UV-I 0 W/m -6.2 C -4.3 C 1.4 km/h (1 Bft)
24.01.2007 20:00 -4.5 C 88 % 1011.0 hPa 0.0 l/m 0.0 km/h (0 Bft) W 0.00 h 0.0 UV-I 0 W/m -6.2 C -4.5 C 0.3 km/h (0 Bft)
24.01.2007 21:00 -5.3 C 89 % 1011.4 hPa 0.0 l/m 1.3 km/h (1 Bft) W-SW 0.00 h 0.0 UV-I 0 W/m -6.9 C -5.3 C 2.6 km/h (1 Bft)
24.01.2007 22:00 -6.1 C 90 % 1011.9 hPa 0.0 l/m 3.0 km/h (1 Bft) O-SO 0.00 h 0.0 UV-I 0 W/m -7.5 C -6.4 C 4.6 km/h (1 Bft)
24.01.2007 23:00 -6.8 C 89 % 1012.0 hPa 0.0 l/m 2.4 km/h (1 Bft) O-SO 0.00 h 0.0 UV-I 0 W/m -8.4 C -7.1 C 3.8 km/h (1 Bft)
25.01.2007 00:00 -7.3 C 90 % 1012.6 hPa 0.0 l/m 2.6 km/h (1 Bft) O 0.00 h 0.0 UV-I 0 W/m -8.8 C -7.4 C 4.1 km/h (1 Bft)
25.01.2007 01:00 -7.3 C 88 % 1012.8 hPa 0.0 l/m 0.4 km/h (0 Bft) O 0.00 h 0.0 UV-I 0 W/m -8.9 C -7.3 C 1.7 km/h (1 Bft)
25.01.2007 02:00 -7.1 C 87 % 1013.0 hPa 0.0 l/m 0.2 km/h (0 Bft) O-NO 0.00 h 0.0 UV-I 0 W/m -9.0 C -7.1 C 0.6 km/h (0 Bft)
25.01.2007 03:00 -7.3 C 88 % 1013.2 hPa 0.0 l/m 2.9 km/h (1 Bft) NO 0.00 h 0.0 UV-I 0 W/m -8.9 C -8.2 C 6.3 km/h (2 Bft)
25.01.2007 04:00 -6.4 C 86 % 1013.5 hPa 0.0 l/m 3.8 km/h (1 Bft) N-NO 0.00 h 0.0 UV-I 0 W/m -8.4 C -7.7 C 8.3 km/h (2 Bft)
25.01.2007 05:00 -6.0 C 85 % 1014.1 hPa 0.0 l/m 2.6 km/h (1 Bft) N-NO 0.00 h 0.0 UV-I 0 W/m -8.2 C -6.4 C 6.4 km/h (2 Bft)
25.01.2007 06:00 -5.4 C 82 % 1014.5 hPa 0.0 l/m 2.6 km/h (1 Bft) NO 0.00 h 0.0 UV-I 0 W/m -7.9 C -5.7 C 5.7 km/h (1 Bft)
25.01.2007 07:00 -5.1 C 81 % 1015.0 hPa 0.0 l/m 1.6 km/h (1 Bft) O 0.00 h 0.0 UV-I 0 W/m -7.8 C -5.2 C 4.0 km/h (1 Bft)
25.01.2007 08:00 -5.3 C 81 % 1016.0 hPa 0.0 l/m 1.9 km/h (1 Bft) N-NO 0.00 h 0.0 UV-I 12 W/m -8.1 C -5.4 C 4.6 km/h (1 Bft)
25.01.2007 09:00 -4.8 C 78 % 1016.9 hPa 0.2 l/m 1.9 km/h (1 Bft) NO 0.55 h 0.0 UV-I 113 W/m -8.0 C -5.0 C 4.6 km/h (1 Bft)
25.01.2007 10:00 -3.4 C 73 % 1017.2 hPa 0.0 l/m 3.0 km/h (1 Bft) NO 0.05 h 0.0 UV-I 77 W/m -7.5 C -4.0 C 6.5 km/h (2 Bft)
25.01.2007 11:00 -2.9 C 72 % 1017.6 hPa 0.2 l/m 4.8 km/h (1 Bft) O-SO 0.00 h 0.5 UV-I 93 W/m -7.1 C -4.3 C 10.0 km/h (2 Bft)
25.01.2007 12:00 -2.7 C 71 % 1017.6 hPa 0.0 l/m 5.4 km/h (1 Bft) O 0.00 h 0.8 UV-I 140 W/m -7.2 C -4.4 C 11.1 km/h (2 Bft)
25.01.2007 13:00 -2.4 C 68 % 1017.8 hPa 0.0 l/m 4.5 km/h (1 Bft) O-SO 0.00 h 0.6 UV-I 101 W/m -7.4 C -3.7 C 9.4 km/h (2 Bft)
25.01.2007 14:00 -2.3 C 68 % 1018.0 hPa 0.0 l/m 6.3 km/h (2 Bft) O-SO 0.00 h 0.5 UV-I 83 W/m -7.4 C -4.4 C 13.4 km/h (3 Bft)
25.01.2007 15:00 -2.5 C 70 % 1018.4 hPa 0.0 l/m 5.8 km/h (1 Bft) N-NO 0.00 h 0.5 UV-I 52 W/m -7.2 C -4.2 C 11.7 km/h (2 Bft)
25.01.2007 16:00 -2.7 C 68 % 1019.0 hPa 0.0 l/m 7.9 km/h (2 Bft) O-SO 0.00 h 0.0 UV-I 19 W/m -7.8 C -5.6 C 16.9 km/h (3 Bft)
25.01.2007 17:00 -3.1 C 68 % 1019.9 hPa 0.0 l/m 7.2 km/h (2 Bft) O-SO 0.00 h 0.0 UV-I 5 W/m -8.1 C -5.7 C 15.6 km/h (3 Bft)
25.01.2007 18:00 -3.5 C 70 % 1021.0 hPa 0.0 l/m 4.2 km/h (1 Bft) N-NO 0.00 h 0.0 UV-I 0 W/m -8.3 C -4.7 C 9.7 km/h (2 Bft)
25.01.2007 19:00 -4.0 C 73 % 1021.6 hPa 0.0 l/m 1.0 km/h (0 Bft) NO 0.00 h 0.0 UV-I 0 W/m -8.2 C -4.1 C 3.1 km/h (1 Bft)
25.01.2007 20:00 -4.1 C 74 % 1022.1 hPa 0.0 l/m 0.9 km/h (0 Bft) N-NO 0.00 h 0.0 UV-I 0 W/m -7.9 C -4.2 C 2.6 km/h (1 Bft)
25.01.2007 21:00 -3.8 C 75 % 1022.3 hPa 0.0 l/m 1.5 km/h (1 Bft) N-NO 0.00 h 0.0 UV-I 0 W/m -7.5 C -3.9 C 4.4 km/h (1 Bft)
25.01.2007 22:00 -3.6 C 77 % 1022.6 hPa 0.0 l/m 0.6 km/h (0 Bft) N-NO 0.00 h 0.0 UV-I 0 W/m -7.1 C -3.7 C 2.0 km/h (1 Bft)
25.01.2007 23:00 -3.7 C 80 % 1022.6 hPa 0.0 l/m 0.1 km/h (0 Bft) NO 0.00 h 0.0 UV-I 0 W/m -6.6 C -3.7 C 0.7 km/h (0 Bft)
26.01.2007 00:00 -3.8 C 83 % 1023.0 hPa 0.0 l/m 0.2 km/h (0 Bft) NO 0.00 h 0.0 UV-I 0 W/m -6.3 C -3.8 C 0.6 km/h (0 Bft)
26.01.2007 01:00 -3.9 C 84 % 1022.9 hPa 0.0 l/m 0.9 km/h (0 Bft) NO 0.00 h 0.0 UV-I 0 W/m -6.2 C -3.9 C 2.1 km/h (1 Bft)
26.01.2007 02:00 -4.0 C 86 % 1022.8 hPa 0.0 l/m 0.5 km/h (0 Bft) O-NO 0.00 h 0.0 UV-I 0 W/m -6.0 C -4.0 C 1.0 km/h (0 Bft)
26.01.2007 03:00 -4.0 C 87 % 1022.7 hPa 0.0 l/m 0.1 km/h (0 Bft) N-NO 0.00 h 0.0 UV-I 0 W/m -5.9 C -4.0 C 0.5 km/h (0 Bft)
26.01.2007 04:00 -3.9 C 87 % 1022.5 hPa 0.0 l/m 0.2 km/h (0 Bft) O-NO 0.00 h 0.0 UV-I 0 W/m -5.7 C -3.9 C 0.9 km/h (0 Bft)
26.01.2007 05:00 -4.1 C 87 % 1022.8 hPa 0.0 l/m 0.3 km/h (0 Bft) O-NO 0.00 h 0.0 UV-I 0 W/m -6.0 C -4.1 C 0.7 km/h (0 Bft)
26.01.2007 06:00 -5.3 C 86 % 1023.1 hPa 0.0 l/m 1.3 km/h (1 Bft) O-NO 0.00 h 0.0 UV-I 0 W/m -7.2 C -5.3 C 2.8 km/h (1 Bft)
26.01.2007 07:00 -5.5 C 90 % 1023.7 hPa 0.0 l/m 0.7 km/h (0 Bft) N 0.00 h 0.0 UV-I 0 W/m -6.9 C -5.5 C 2.2 km/h (1 Bft)
26.01.2007 08:00 -5.2 C 83 % 1024.7 hPa 0.0 l/m 1.3 km/h (1 Bft) N 0.00 h 0.0 UV-I 18 W/m -7.7 C -5.4 C 3.4 km/h (1 Bft)
26.01.2007 09:00 -5.4 C 77 % 1025.4 hPa 0.0 l/m 1.0 km/h (0 Bft) O 0.00 h 0.6 UV-I 65 W/m -8.7 C -5.4 C 2.9 km/h (1 Bft)
26.01.2007 10:00 -5.0 C 75 % 1025.9 hPa 0.0 l/m 1.2 km/h (1 Bft) O-SO 0.82 h 0.7 UV-I 187 W/m -8.7 C -5.2 C 3.0 km/h (1 Bft)
26.01.2007 11:00 -3.8 C 71 % 1025.9 hPa 0.0 l/m 2.0 km/h (1 Bft) W-NW 1.00 h 1.2 UV-I 330 W/m -8.3 C -4.2 C 3.7 km/h (1 Bft)
26.01.2007 12:00 -3.1 C 68 % 1025.6 hPa 0.0 l/m 5.7 km/h (1 Bft) W-NW 1.00 h 1.4 UV-I 368 W/m -8.1 C -5.3 C 8.7 km/h (2 Bft)
26.01.2007 13:00 -2.3 C 61 % 1025.2 hPa 0.0 l/m 4.3 km/h (1 Bft) W 0.97 h 1.3 UV-I 356 W/m -8.8 C -3.3 C 6.5 km/h (2 Bft)
26.01.2007 14:00 -2.3 C 59 % 1025.3 hPa 0.0 l/m 4.0 km/h (1 Bft) SO 1.00 h 1.0 UV-I 290 W/m -9.2 C -3.2 C 6.6 km/h (2 Bft)
26.01.2007 15:00 -2.3 C 62 % 1025.2 hPa 0.0 l/m 3.7 km/h (1 Bft) S-SO 0.93 h 0.7 UV-I 178 W/m -8.7 C -2.9 C 6.6 km/h (2 Bft)
26.01.2007 16:00 -1.9 C 61 % 1025.3 hPa 0.0 l/m 4.2 km/h (1 Bft) W 0.85 h 0.5 UV-I 79 W/m -8.5 C -3.1 C 7.3 km/h (2 Bft)
26.01.2007 17:00 -3.5 C 67 % 1025.4 hPa 0.0 l/m 2.4 km/h (1 Bft) W-SW 0.00 h 0.0 UV-I 7 W/m -8.7 C -4.1 C 4.4 km/h (1 Bft)
26.01.2007 18:00 -4.8 C 74 % 1026.0 hPa 0.0 l/m 2.0 km/h (1 Bft) S 0.00 h 0.0 UV-I 0 W/m -8.7 C -5.0 C 3.5 km/h (1 Bft)
26.01.2007 19:00 -4.2 C 74 % 1026.6 hPa 0.0 l/m 2.2 km/h (1 Bft) S-SO 0.00 h 0.0 UV-I 0 W/m -8.2 C -4.7 C 4.2 km/h (1 Bft)
26.01.2007 20:00 -4.1 C 76 % 1027.3 hPa 0.0 l/m 1.6 km/h (1 Bft) S 0.00 h 0.0 UV-I 0 W/m -7.7 C -4.1 C 4.0 km/h (1 Bft)
26.01.2007 21:00 -4.0 C 76 % 1027.9 hPa 0.0 l/m 1.8 km/h (1 Bft) SW 0.00 h 0.0 UV-I 0 W/m -7.6 C -4.0 C 4.8 km/h (1 Bft)
26.01.2007 22:00 -3.9 C 77 % 1028.2 hPa 0.0 l/m 2.0 km/h (1 Bft) S-SW 0.00 h 0.0 UV-I 0 W/m -7.3 C -3.9 C 4.9 km/h (1 Bft)
26.01.2007 23:00 -4.0 C 77 % 1028.1 hPa 0.0 l/m 2.4 km/h (1 Bft) S 0.00 h 0.0 UV-I 0 W/m -7.3 C -4.1 C 5.4 km/h (1 Bft)
27.01.2007 00:00 -4.2 C 78 % 1028.1 hPa 0.0 l/m 3.3 km/h (1 Bft) S 0.00 h 0.0 UV-I 0 W/m -7.4 C -4.9 C 7.0 km/h (2 Bft)
27.01.2007 01:00 -3.9 C 78 % 1027.8 hPa 0.0 l/m 2.3 km/h (1 Bft) S 0.00 h 0.0 UV-I 0 W/m -7.2 C -4.0 C 4.8 km/h (1 Bft)
27.01.2007 02:00 -3.7 C 78 % 1027.7 hPa 0.0 l/m 2.9 km/h (1 Bft) W-SW 0.00 h 0.0 UV-I 0 W/m -7.0 C -4.0 C 5.4 km/h (1 Bft)
27.01.2007 03:00 -3.5 C 78 % 1028.2 hPa 0.0 l/m 4.9 km/h (1 Bft) W 0.00 h 0.0 UV-I 0 W/m -6.8 C -4.9 C 8.1 km/h (2 Bft)
27.01.2007 04:00 -3.5 C 79 % 1028.5 hPa 0.0 l/m 3.9 km/h (1 Bft) W-SW 0.00 h 0.0 UV-I 0 W/m -6.6 C -4.5 C 7.1 km/h (2 Bft)
27.01.2007 05:00 -3.8 C 83 % 1029.0 hPa 0.0 l/m 2.4 km/h (1 Bft) W-SW 0.00 h 0.0 UV-I 0 W/m -6.3 C -4.1 C 4.7 km/h (1 Bft)
27.01.2007 06:00 -3.6 C 84 % 1029.3 hPa 0.0 l/m 1.6 km/h (1 Bft) W 0.00 h 0.0 UV-I 0 W/m -6.0 C -3.7 C 3.6 km/h (1 Bft)
27.01.2007 07:00 -3.1 C 84 % 1029.0 hPa 0.0 l/m 2.0 km/h (1 Bft) SW 0.00 h 0.0 UV-I 0 W/m -5.5 C -3.3 C 4.7 km/h (1 Bft)
27.01.2007 08:00 -2.8 C 84 % 1029.7 hPa 0.0 l/m 3.1 km/h (1 Bft) S 0.00 h 0.0 UV-I 13 W/m -5.1 C -3.2 C 6.8 km/h (2 Bft)
27.01.2007 09:00 -2.3 C 85 % 1030.4 hPa 0.0 l/m 3.4 km/h (1 Bft) SW 0.00 h 0.5 UV-I 66 W/m -4.4 C -2.9 C 6.5 km/h (2 Bft)
27.01.2007 10:00 -1.3 C 83 % 1030.9 hPa 0.2 l/m 2.8 km/h (1 Bft) SW 0.00 h 0.7 UV-I 106 W/m -3.8 C -1.5 C 6.1 km/h (2 Bft)
27.01.2007 11:00 -0.5 C 81 % 1031.5 hPa 0.0 l/m 4.2 km/h (1 Bft) W-SW 0.00 h 0.7 UV-I 104 W/m -3.4 C -1.5 C 7.3 km/h (2 Bft)
27.01.2007 12:00 -0.2 C 81 % 1031.9 hPa 0.0 l/m 4.7 km/h (1 Bft) W-SW 0.00 h 0.6 UV-I 76 W/m -3.0 C -1.4 C 8.0 km/h (2 Bft)
27.01.2007 13:00 0.1 C 82 % 1032.4 hPa 0.0 l/m 2.4 km/h (1 Bft) W-SW 0.00 h 0.8 UV-I 87 W/m -2.7 C -0.2 C 4.9 km/h (1 Bft)
27.01.2007 14:00 0.6 C 81 % 1032.6 hPa 0.0 l/m 5.1 km/h (1 Bft) W 0.08 h 0.8 UV-I 131 W/m -2.3 C -0.7 C 8.2 km/h (2 Bft)
27.01.2007 15:00 0.7 C 81 % 1032.9 hPa 0.0 l/m 5.9 km/h (2 Bft) W 0.13 h 0.6 UV-I 97 W/m -2.2 C -1.0 C 9.3 km/h (2 Bft)
27.01.2007 16:00 0.6 C 83 % 1033.1 hPa 0.0 l/m 4.2 km/h (1 Bft) W 0.08 h 0.0 UV-I 40 W/m -2.0 C -0.1 C 7.3 km/h (2 Bft)
27.01.2007 17:00 0.5 C 83 % 1033.6 hPa 0.0 l/m 3.8 km/h (1 Bft) W-NW 0.00 h 0.0 UV-I 7 W/m -1.9 C -0.4 C 6.7 km/h (2 Bft)
27.01.2007 18:00 0.5 C 85 % 1034.5 hPa 0.0 l/m 1.1 km/h (0 Bft) W-SW 0.00 h 0.0 UV-I 0 W/m -1.8 C 0.5 C 2.6 km/h (1 Bft)
27.01.2007 19:00 0.9 C 83 % 1035.1 hPa 0.0 l/m 2.3 km/h (1 Bft) W 0.00 h 0.0 UV-I 0 W/m -1.6 C 0.6 C 4.7 km/h (1 Bft)
27.01.2007 20:00 0.9 C 85 % 1035.7 hPa 0.0 l/m 3.7 km/h (1 Bft) W 0.00 h 0.0 UV-I 0 W/m -1.3 C 0.3 C 6.9 km/h (2 Bft)
27.01.2007 21:00 0.8 C 86 % 1036.2 hPa 0.0 l/m 1.9 km/h (1 Bft) W-SW 0.00 h 0.0 UV-I 0 W/m -1.2 C 0.6 C 3.9 km/h (1 Bft)
27.01.2007 22:00 0.7 C 86 % 1036.3 hPa 0.0 l/m 2.3 km/h (1 Bft) S-SO 0.00 h 0.0 UV-I 0 W/m -1.4 C 0.5 C 4.9 km/h (1 Bft)
27.01.2007 23:00 0.4 C 87 % 1036.6 hPa 0.0 l/m 3.3 km/h (1 Bft) S-SO 0.00 h 0.0 UV-I 0 W/m -1.5 C 0.0 C 6.1 km/h (2 Bft)
28.01.2007 00:00 0.3 C 86 % 1036.7 hPa 0.0 l/m 4.7 km/h (1 Bft) S 0.00 h 0.0 UV-I 0 W/m -1.8 C -0.8 C 8.1 km/h (2 Bft)
28.01.2007 01:00 0.2 C 86 % 1036.5 hPa 0.0 l/m 2.1 km/h (1 Bft) S 0.00 h 0.0 UV-I 0 W/m -1.9 C 0.0 C 4.7 km/h (1 Bft)
28.01.2007 02:00 0.2 C 87 % 1036.5 hPa 0.0 l/m 2.9 km/h (1 Bft) S 0.00 h 0.0 UV-I 0 W/m -1.7 C -0.0 C 6.3 km/h (2 Bft)
28.01.2007 03:00 0.3 C 87 % 1036.4 hPa 0.0 l/m 1.1 km/h (1 Bft) S-SO 0.00 h 0.0 UV-I 0 W/m -1.7 C 0.1 C 2.9 km/h (1 Bft)
28.01.2007 04:00 0.4 C 86 % 1036.4 hPa 0.0 l/m 3.3 km/h (1 Bft) S 0.00 h 0.0 UV-I 0 W/m -1.7 C -0.3 C 6.3 km/h (2 Bft)
28.01.2007 05:00 0.1 C 87 % 1036.3 hPa 0.0 l/m 5.4 km/h (1 Bft) S-SO 0.00 h 0.0 UV-I 0 W/m -1.8 C -1.5 C 9.5 km/h (2 Bft)
28.01.2007 06:00 0.1 C 86 % 1035.8 hPa 0.0 l/m 4.5 km/h (1 Bft) S-SO 0.00 h 0.0 UV-I 0 W/m -2.0 C -1.0 C 8.1 km/h (2 Bft)
28.01.2007 07:00 -0.1 C 86 % 1035.3 hPa 0.0 l/m 1.9 km/h (1 Bft) S-SO 0.00 h 0.0 UV-I 0 W/m -2.1 C -0.1 C 4.8 km/h (1 Bft)
28.01.2007 08:00 -0.6 C 87 % 1035.0 hPa 0.0 l/m 1.9 km/h (1 Bft) S-SO 0.13 h 0.0 UV-I 21 W/m -2.5 C -0.7 C 4.2 km/h (1 Bft)
28.01.2007 09:00 -0.2 C 84 % 1034.7 hPa 0.0 l/m 2.0 km/h (1 Bft) S-SO 0.60 h 0.7 UV-I 114 W/m -2.5 C -0.5 C 4.6 km/h (1 Bft)
28.01.2007 10:00 0.8 C 80 % 1033.9 hPa 0.0 l/m 5.3 km/h (1 Bft) S 0.82 h 1.0 UV-I 190 W/m -2.2 C -0.6 C 9.3 km/h (2 Bft)
28.01.2007 11:00 2.0 C 75 % 1033.3 hPa 0.0 l/m 7.6 km/h (2 Bft) S 0.90 h 1.4 UV-I 307 W/m -1.9 C -0.3 C 13.5 km/h (3 Bft)
28.01.2007 12:00 3.6 C 72 % 1032.3 hPa 0.0 l/m 8.7 km/h (2 Bft) W-SW 1.00 h 1.6 UV-I 370 W/m -0.9 C 1.6 C 14.1 km/h (3 Bft)
28.01.2007 13:00 4.4 C 70 % 1031.5 hPa 0.0 l/m 10.9 km/h (2 Bft) W-SW 1.00 h 1.4 UV-I 357 W/m -0.7 C 1.8 C 17.9 km/h (3 Bft)
28.01.2007 14:00 4.6 C 68 % 1030.5 hPa 0.0 l/m 12.2 km/h (2 Bft) W-SW 0.62 h 1.0 UV-I 218 W/m -0.7 C 1.8 C 19.8 km/h (3 Bft)
28.01.2007 15:00 4.6 C 68 % 1030.0 hPa 0.0 l/m 12.5 km/h (3 Bft) W 0.58 h 0.6 UV-I 152 W/m -0.8 C 1.8 C 20.6 km/h (4 Bft)
28.01.2007 16:00 4.3 C 69 % 1030.0 hPa 0.0 l/m 18.0 km/h (3 Bft) W 0.37 h 0.0 UV-I 60 W/m -1.0 C 0.5 C 28.1 km/h (4 Bft)
28.01.2007 17:00 3.9 C 69 % 1029.8 hPa 0.0 l/m 13.8 km/h (3 Bft) W 0.00 h 0.0 UV-I 7 W/m -1.3 C 0.7 C 21.7 km/h (4 Bft)
28.01.2007 18:00 3.8 C 69 % 1030.0 hPa 0.0 l/m 9.8 km/h (2 Bft) W-SW 0.00 h 0.0 UV-I 0 W/m -1.3 C 1.5 C 15.7 km/h (3 Bft)
28.01.2007 19:00 3.7 C 70 % 1030.3 hPa 0.0 l/m 8.0 km/h (2 Bft) W 0.00 h 0.0 UV-I 0 W/m -1.2 C 1.8 C 13.8 km/h (3 Bft)
28.01.2007 20:00 3.6 C 71 % 1029.9 hPa 0.0 l/m 13.5 km/h (3 Bft) W 0.00 h 0.0 UV-I 0 W/m -1.1 C 0.5 C 20.4 km/h (4 Bft)
28.01.2007 21:00 3.7 C 70 % 1029.5 hPa 0.0 l/m 11.3 km/h (2 Bft) W 0.00 h 0.0 UV-I 0 W/m -1.3 C 0.9 C 17.5 km/h (3 Bft)
28.01.2007 22:00 3.4 C 72 % 1029.7 hPa 0.0 l/m 10.5 km/h (2 Bft) W 0.00 h 0.0 UV-I 0 W/m -1.2 C 0.8 C 16.9 km/h (3 Bft)
28.01.2007 23:00 3.1 C 74 % 1029.3 hPa 0.0 l/m 9.1 km/h (2 Bft) W 0.00 h 0.0 UV-I 0 W/m -1.0 C 0.8 C 13.9 km/h (3 Bft)
Min-Datum _ 25.01.07 26.01.07 23.01.07 - 22.01.07 - - - - 26.01.07 25.01.07 22.01.07
_ Min-Zeit 03:06 14:04 17:30 - 00:02 - - - - 14:10 03:21 00:21
Minimum _ -7.8 C 53 % 998.5 hPa - 0.0 km/h (0 Bft) - - - - -10.4 C -11.3 C 0.0 km/h (0 Bft)
Max-Datum _ 22.01.07 22.01.07 28.01.07 22.01.07 28.01.07 - 22.01.07 28.01.07 26.01.07 22.01.07 22.01.07 28.01.07
_ Max-Zeit 14:05 06:24 00:30 21:05 16:14 - 11:32 12:16 13:12 12:32 14:05 15:24
Maximum _ 6.4 C 95 % 1036.9 hPa 1.4 l/m 28.3 km/h
W (4 Bft)
- 0.02 h 1.6 UV-I 392 W/m 1.9 C 6.4 C 45.1 km/h
W (6 Bft)
Durchschnitt _ -0.9 C 80 % 1018.9 hPa #10.0 l/m 3.8 km/h (1 Bft) W #14:01 h 0.8 UV-I 95 W/m -3.9 C -1.8 C 7.3 km/h (2 Bft)
© Kaiko 2007